sensor_id;sensor_type;location;lat;lon;timestamp;P1;durP1;ratioP1;P2;durP2;ratioP2
38909;SDS011;24676;51.360;12.354;2023-03-11T00:01:27;0.20;;;0.20;;
38909;SDS011;24676;51.360;12.354;2023-03-11T00:04:12;0.17;;;0.15;;
38909;SDS011;24676;51.360;12.354;2023-03-11T00:06:56;1.45;;;0.45;;
38909;SDS011;24676;51.360;12.354;2023-03-11T00:09:41;0.22;;;0.10;;
38909;SDS011;24676;51.360;12.354;2023-03-11T00:12:25;0.52;;;0.52;;
38909;SDS011;24676;51.360;12.354;2023-03-11T00:15:09;0.13;;;0.13;;
38909;SDS011;24676;51.360;12.354;2023-03-11T00:17:54;3.08;;;0.65;;
38909;SDS011;24676;51.360;12.354;2023-03-11T00:20:40;1.25;;;0.28;;
38909;SDS011;24676;51.360;12.354;2023-03-11T00:23:26;0.10;;;0.10;;
38909;SDS011;24676;51.360;12.354;2023-03-11T00:26:10;0.40;;;0.40;;
38909;SDS011;24676;51.360;12.354;2023-03-11T00:28:55;0.90;;;0.80;;
38909;SDS011;24676;51.360;12.354;2023-03-11T00:31:40;1.33;;;0.40;;
38909;SDS011;24676;51.360;12.354;2023-03-11T00:37:13;0.80;;;0.55;;
38909;SDS011;24676;51.360;12.354;2023-03-11T00:39:57;0.65;;;0.50;;
38909;SDS011;24676;51.360;12.354;2023-03-11T00:42:42;0.80;;;0.47;;
38909;SDS011;24676;51.360;12.354;2023-03-11T00:45:27;0.70;;;0.57;;
38909;SDS011;24676;51.360;12.354;2023-03-11T00:48:12;1.35;;;0.45;;
38909;SDS011;24676;51.360;12.354;2023-03-11T00:50:57;2.53;;;1.48;;
38909;SDS011;24676;51.360;12.354;2023-03-11T00:53:42;0.80;;;0.80;;
38909;SDS011;24676;51.360;12.354;2023-03-11T00:56:26;1.03;;;0.57;;
38909;SDS011;24676;51.360;12.354;2023-03-11T00:59:10;1.40;;;1.30;;
38909;SDS011;24676;51.360;12.354;2023-03-11T01:01:54;0.43;;;0.43;;
38909;SDS011;24676;51.360;12.354;2023-03-11T01:04:38;0.65;;;0.63;;
38909;SDS011;24676;51.360;12.354;2023-03-11T01:07:23;0.77;;;0.77;;
38909;SDS011;24676;51.360;12.354;2023-03-11T01:10:08;1.55;;;1.20;;
38909;SDS011;24676;51.360;12.354;2023-03-11T01:12:53;3.25;;;2.25;;
38909;SDS011;24676;51.360;12.354;2023-03-11T01:18:22;1.92;;;1.38;;
38909;SDS011;24676;51.360;12.354;2023-03-11T01:21:06;2.35;;;2.22;;
38909;SDS011;24676;51.360;12.354;2023-03-11T01:23:51;1.70;;;1.13;;
38909;SDS011;24676;51.360;12.354;2023-03-11T01:26:35;2.30;;;1.77;;
38909;SDS011;24676;51.360;12.354;2023-03-11T01:29:20;2.95;;;2.10;;
38909;SDS011;24676;51.360;12.354;2023-03-11T01:32:04;1.85;;;1.70;;
38909;SDS011;24676;51.360;12.354;2023-03-11T01:34:49;2.30;;;1.27;;
38909;SDS011;24676;51.360;12.354;2023-03-11T01:37:33;1.70;;;1.17;;
38909;SDS011;24676;51.360;12.354;2023-03-11T01:40:40;2.03;;;1.20;;
38909;SDS011;24676;51.360;12.354;2023-03-11T01:49:16;3.10;;;1.40;;
38909;SDS011;24676;51.360;12.354;2023-03-11T01:52:03;3.70;;;1.60;;
38909;SDS011;24676;51.360;12.354;2023-03-11T01:54:50;3.35;;;1.67;;
38909;SDS011;24676;51.360;12.354;2023-03-11T01:57:35;4.20;;;2.10;;
38909;SDS011;24676;51.360;12.354;2023-03-11T02:08:42;4.50;;;1.70;;
38909;SDS011;24676;51.360;12.354;2023-03-11T02:11:28;7.60;;;2.40;;
38909;SDS011;24676;51.360;12.354;2023-03-11T02:14:13;4.20;;;2.70;;
38909;SDS011;24676;51.360;12.354;2023-03-11T02:16:57;2.60;;;2.03;;
38909;SDS011;24676;51.360;12.354;2023-03-11T02:23:01;3.20;;;2.55;;
38909;SDS011;24676;51.360;12.354;2023-03-11T02:25:55;2.75;;;1.55;;
38909;SDS011;24676;51.360;12.354;2023-03-11T02:28:44;4.80;;;2.38;;
38909;SDS011;24676;51.360;12.354;2023-03-11T02:31:30;3.70;;;2.03;;
38909;SDS011;24676;51.360;12.354;2023-03-11T02:34:19;9.43;;;2.90;;
38909;SDS011;24676;51.360;12.354;2023-03-11T02:37:10;8.02;;;2.83;;
38909;SDS011;24676;51.360;12.354;2023-03-11T02:40:11;3.88;;;2.25;;
38909;SDS011;24676;51.360;12.354;2023-03-11T02:43:05;5.03;;;2.33;;
38909;SDS011;24676;51.360;12.354;2023-03-11T02:59:33;6.40;;;3.17;;
38909;SDS011;24676;51.360;12.354;2023-03-11T03:40:38;7.40;;;3.00;;
38909;SDS011;24676;51.360;12.354;2023-03-11T04:19:11;5.80;;;3.70;;
38909;SDS011;24676;51.360;12.354;2023-03-11T04:52:02;3.63;;;2.55;;
38909;SDS011;24676;51.360;12.354;2023-03-11T04:57:31;5.85;;;3.65;;
38909;SDS011;24676;51.360;12.354;2023-03-11T05:00:16;7.20;;;3.77;;
38909;SDS011;24676;51.360;12.354;2023-03-11T05:03:04;11.45;;;2.10;;
38909;SDS011;24676;51.360;12.354;2023-03-11T05:14:01;9.95;;;3.20;;
38909;SDS011;24676;51.360;12.354;2023-03-11T05:27:42;9.38;;;4.10;;
38909;SDS011;24676;51.360;12.354;2023-03-11T05:52:29;8.70;;;3.88;;
38909;SDS011;24676;51.360;12.354;2023-03-11T06:19:55;7.80;;;4.85;;
38909;SDS011;24676;51.360;12.354;2023-03-11T06:25:27;4.70;;;2.77;;
38909;SDS011;24676;51.360;12.354;2023-03-11T06:28:11;4.20;;;1.80;;
38909;SDS011;24676;51.360;12.354;2023-03-11T06:30:55;4.80;;;1.83;;
38909;SDS011;24676;51.360;12.354;2023-03-11T06:33:41;2.83;;;2.20;;
38909;SDS011;24676;51.360;12.354;2023-03-11T06:36:26;4.60;;;2.67;;
38909;SDS011;24676;51.360;12.354;2023-03-11T06:39:13;6.20;;;2.33;;
38909;SDS011;24676;51.360;12.354;2023-03-11T06:41:58;5.05;;;1.63;;
38909;SDS011;24676;51.360;12.354;2023-03-11T06:44:42;3.50;;;2.80;;
38909;SDS011;24676;51.360;12.354;2023-03-11T06:47:26;6.22;;;2.55;;
38909;SDS011;24676;51.360;12.354;2023-03-11T07:06:41;4.47;;;1.83;;
38909;SDS011;24676;51.360;12.354;2023-03-11T07:09:26;5.80;;;2.97;;
38909;SDS011;24676;51.360;12.354;2023-03-11T07:14:57;3.17;;;1.60;;
38909;SDS011;24676;51.360;12.354;2023-03-11T07:17:42;3.35;;;1.55;;
38909;SDS011;24676;51.360;12.354;2023-03-11T07:20:27;4.57;;;2.70;;
38909;SDS011;24676;51.360;12.354;2023-03-11T07:23:11;1.70;;;1.50;;
38909;SDS011;24676;51.360;12.354;2023-03-11T07:25:55;1.45;;;1.35;;
38909;SDS011;24676;51.360;12.354;2023-03-11T07:28:39;1.88;;;1.55;;
38909;SDS011;24676;51.360;12.354;2023-03-11T07:31:25;4.72;;;2.92;;
38909;SDS011;24676;51.360;12.354;2023-03-11T07:34:10;5.40;;;2.35;;
38909;SDS011;24676;51.360;12.354;2023-03-11T07:36:55;4.60;;;3.53;;
38909;SDS011;24676;51.360;12.354;2023-03-11T07:39:39;9.10;;;3.08;;
38909;SDS011;24676;51.360;12.354;2023-03-11T07:42:23;2.80;;;1.92;;
38909;SDS011;24676;51.360;12.354;2023-03-11T07:45:08;4.20;;;1.90;;
38909;SDS011;24676;51.360;12.354;2023-03-11T07:47:52;3.95;;;2.92;;
38909;SDS011;24676;51.360;12.354;2023-03-11T07:50:37;3.78;;;1.67;;
38909;SDS011;24676;51.360;12.354;2023-03-11T07:53:21;2.42;;;1.75;;
38909;SDS011;24676;51.360;12.354;2023-03-11T08:09:47;2.90;;;1.70;;
38909;SDS011;24676;51.360;12.354;2023-03-11T08:15:16;5.40;;;2.67;;
38909;SDS011;24676;51.360;12.354;2023-03-11T08:18:00;3.78;;;2.67;;
38909;SDS011;24676;51.360;12.354;2023-03-11T08:20:44;5.47;;;2.95;;
38909;SDS011;24676;51.360;12.354;2023-03-11T08:23:28;3.70;;;2.00;;
38909;SDS011;24676;51.360;12.354;2023-03-11T08:26:14;3.47;;;2.50;;
38909;SDS011;24676;51.360;12.354;2023-03-11T08:29:00;2.25;;;1.50;;
38909;SDS011;24676;51.360;12.354;2023-03-11T08:31:45;7.70;;;3.25;;
38909;SDS011;24676;51.360;12.354;2023-03-11T08:34:28;5.18;;;3.53;;
38909;SDS011;24676;51.360;12.354;2023-03-11T08:37:12;4.55;;;2.80;;
38909;SDS011;24676;51.360;12.354;2023-03-11T08:39:57;2.20;;;1.92;;
38909;SDS011;24676;51.360;12.354;2023-03-11T08:42:41;2.50;;;2.30;;
38909;SDS011;24676;51.360;12.354;2023-03-11T08:45:25;2.08;;;1.38;;
38909;SDS011;24676;51.360;12.354;2023-03-11T08:48:10;2.05;;;1.25;;
38909;SDS011;24676;51.360;12.354;2023-03-11T08:50:55;2.78;;;1.33;;
38909;SDS011;24676;51.360;12.354;2023-03-11T08:53:39;1.17;;;1.13;;
38909;SDS011;24676;51.360;12.354;2023-03-11T08:56:24;1.63;;;1.38;;
38909;SDS011;24676;51.360;12.354;2023-03-11T08:59:08;2.65;;;1.40;;
38909;SDS011;24676;51.360;12.354;2023-03-11T09:01:53;5.38;;;1.85;;
38909;SDS011;24676;51.360;12.354;2023-03-11T09:04:38;1.67;;;1.48;;
38909;SDS011;24676;51.360;12.354;2023-03-11T09:07:22;2.10;;;1.48;;
38909;SDS011;24676;51.360;12.354;2023-03-11T09:10:06;3.67;;;2.25;;
38909;SDS011;24676;51.360;12.354;2023-03-11T09:12:51;0.80;;;0.80;;
38909;SDS011;24676;51.360;12.354;2023-03-11T09:15:35;9.75;;;2.60;;
38909;SDS011;24676;51.360;12.354;2023-03-11T09:18:21;3.15;;;1.50;;
38909;SDS011;24676;51.360;12.354;2023-03-11T09:21:06;4.47;;;2.08;;
38909;SDS011;24676;51.360;12.354;2023-03-11T09:23:50;2.63;;;1.48;;
38909;SDS011;24676;51.360;12.354;2023-03-11T10:03:01;2.00;;;1.90;;
38909;SDS011;24676;51.360;12.354;2023-03-11T10:20:41;1.08;;;1.08;;
38909;SDS011;24676;51.360;12.354;2023-03-11T10:23:58;1.85;;;1.08;;
38909;SDS011;24676;51.360;12.354;2023-03-11T10:26:48;2.20;;;1.90;;
38909;SDS011;24676;51.360;12.354;2023-03-11T10:32:50;2.42;;;1.55;;
38909;SDS011;24676;51.360;12.354;2023-03-11T10:35:47;3.60;;;1.52;;
38909;SDS011;24676;51.360;12.354;2023-03-11T10:38:36;2.30;;;1.88;;
38909;SDS011;24676;51.360;12.354;2023-03-11T10:44:19;3.15;;;2.05;;
38909;SDS011;24676;51.360;12.354;2023-03-11T10:47:20;1.60;;;0.75;;
38909;SDS011;24676;51.360;12.354;2023-03-11T10:53:07;1.63;;;1.10;;
38909;SDS011;24676;51.360;12.354;2023-03-11T10:55:54;3.13;;;1.85;;
38909;SDS011;24676;51.360;12.354;2023-03-11T10:58:43;2.95;;;1.83;;
38909;SDS011;24676;51.360;12.354;2023-03-11T11:01:31;3.75;;;1.80;;
38909;SDS011;24676;51.360;12.354;2023-03-11T11:04:22;2.30;;;1.70;;
38909;SDS011;24676;51.360;12.354;2023-03-11T11:07:29;3.58;;;1.15;;
38909;SDS011;24676;51.360;12.354;2023-03-11T11:10:17;1.58;;;0.90;;
38909;SDS011;24676;51.360;12.354;2023-03-11T11:21:51;1.50;;;1.37;;
38909;SDS011;24676;51.360;12.354;2023-03-11T11:24:35;1.88;;;1.60;;
38909;SDS011;24676;51.360;12.354;2023-03-11T11:27:27;1.80;;;1.45;;
38909;SDS011;24676;51.360;12.354;2023-03-11T11:30:13;1.95;;;0.88;;
38909;SDS011;24676;51.360;12.354;2023-03-11T11:33:15;1.67;;;1.23;;
38909;SDS011;24676;51.360;12.354;2023-03-11T11:41:42;1.70;;;1.40;;
38909;SDS011;24676;51.360;12.354;2023-03-11T11:44:31;3.50;;;1.85;;
38909;SDS011;24676;51.360;12.354;2023-03-11T11:50:40;4.50;;;1.52;;
38909;SDS011;24676;51.360;12.354;2023-03-11T11:53:39;1.90;;;1.80;;
38909;SDS011;24676;51.360;12.354;2023-03-11T11:56:29;2.92;;;1.65;;
38909;SDS011;24676;51.360;12.354;2023-03-11T11:59:17;5.05;;;1.40;;
38909;SDS011;24676;51.360;12.354;2023-03-11T12:08:20;3.35;;;1.20;;
38909;SDS011;24676;51.360;12.354;2023-03-11T12:11:23;1.55;;;1.45;;
38909;SDS011;24676;51.360;12.354;2023-03-11T12:17:28;1.65;;;1.45;;
38909;SDS011;24676;51.360;12.354;2023-03-11T12:26:15;3.92;;;1.58;;
38909;SDS011;24676;51.360;12.354;2023-03-11T12:29:11;4.00;;;1.63;;
38909;SDS011;24676;51.360;12.354;2023-03-11T12:32:07;3.85;;;1.65;;
38909;SDS011;24676;51.360;12.354;2023-03-11T12:38:16;2.42;;;1.60;;
38909;SDS011;24676;51.360;12.354;2023-03-11T12:44:00;1.33;;;1.23;;
38909;SDS011;24676;51.360;12.354;2023-03-11T12:49:45;3.33;;;2.20;;
38909;SDS011;24676;51.360;12.354;2023-03-11T12:55:33;5.07;;;2.25;;
38909;SDS011;24676;51.360;12.354;2023-03-11T12:58:31;2.50;;;1.65;;
38909;SDS011;24676;51.360;12.354;2023-03-11T13:01:49;2.55;;;2.05;;
38909;SDS011;24676;51.360;12.354;2023-03-11T13:07:35;1.77;;;1.67;;
38909;SDS011;24676;51.360;12.354;2023-03-11T13:22:38;1.00;;;0.93;;
38909;SDS011;24676;51.360;12.354;2023-03-11T13:28:44;2.58;;;1.70;;
38909;SDS011;24676;51.360;12.354;2023-03-11T13:34:53;2.10;;;1.50;;
38909;SDS011;24676;51.360;12.354;2023-03-11T13:40:57;2.72;;;1.02;;
38909;SDS011;24676;51.360;12.354;2023-03-11T13:43:44;0.88;;;0.85;;
38909;SDS011;24676;51.360;12.354;2023-03-11T13:46:35;1.87;;;1.53;;
38909;SDS011;24676;51.360;12.354;2023-03-11T13:52:33;1.85;;;1.38;;
38909;SDS011;24676;51.360;12.354;2023-03-11T14:03:57;3.20;;;2.10;;
38909;SDS011;24676;51.360;12.354;2023-03-11T14:06:42;2.40;;;1.50;;
38909;SDS011;24676;51.360;12.354;2023-03-11T14:12:13;1.08;;;0.95;;
38909;SDS011;24676;51.360;12.354;2023-03-11T14:14:59;2.03;;;1.13;;
38909;SDS011;24676;51.360;12.354;2023-03-11T14:17:49;1.55;;;1.45;;
38909;SDS011;24676;51.360;12.354;2023-03-11T14:20:34;1.00;;;0.82;;
38909;SDS011;24676;51.360;12.354;2023-03-11T14:29:17;1.87;;;0.80;;
38909;SDS011;24676;51.360;12.354;2023-03-11T14:35:19;0.68;;;0.63;;
38909;SDS011;24676;51.360;12.354;2023-03-11T16:23:51;0.80;;;0.40;;
38909;SDS011;24676;51.360;12.354;2023-03-11T16:26:35;0.30;;;0.30;;
38909;SDS011;24676;51.360;12.354;2023-03-11T16:29:19;2.05;;;1.13;;
38909;SDS011;24676;51.360;12.354;2023-03-11T16:32:06;5.53;;;1.10;;
38909;SDS011;24676;51.360;12.354;2023-03-11T16:34:51;1.05;;;0.85;;
38909;SDS011;24676;51.360;12.354;2023-03-11T16:37:35;0.90;;;0.90;;
38909;SDS011;24676;51.360;12.354;2023-03-11T16:40:25;0.25;;;0.25;;
38909;SDS011;24676;51.360;12.354;2023-03-11T16:43:11;0.13;;;0.10;;
38909;SDS011;24676;51.360;12.354;2023-03-11T16:51:27;0.45;;;0.30;;
38909;SDS011;24676;51.360;12.354;2023-03-11T16:54:12;0.60;;;0.55;;
38909;SDS011;24676;51.360;12.354;2023-03-11T16:56:55;0.13;;;0.13;;
38909;SDS011;24676;51.360;12.354;2023-03-11T16:59:40;2.55;;;1.88;;
38909;SDS011;24676;51.360;12.354;2023-03-11T17:02:24;4.25;;;0.77;;
38909;SDS011;24676;51.360;12.354;2023-03-11T17:05:08;0.10;;;0.10;;
38909;SDS011;24676;51.360;12.354;2023-03-11T17:07:54;0.32;;;0.32;;
38909;SDS011;24676;51.360;12.354;2023-03-11T17:10:43;0.52;;;0.52;;
38909;SDS011;24676;51.360;12.354;2023-03-11T17:13:28;1.98;;;0.93;;
38909;SDS011;24676;51.360;12.354;2023-03-11T17:16:13;2.15;;;0.70;;
38909;SDS011;24676;51.360;12.354;2023-03-11T17:18:59;6.18;;;0.60;;
38909;SDS011;24676;51.360;12.354;2023-03-11T17:21:46;2.00;;;0.55;;
38909;SDS011;24676;51.360;12.354;2023-03-11T17:24:30;0.40;;;0.40;;
38909;SDS011;24676;51.360;12.354;2023-03-11T17:27:14;1.27;;;0.70;;
38909;SDS011;24676;51.360;12.354;2023-03-11T17:29:59;1.45;;;0.88;;
38909;SDS011;24676;51.360;12.354;2023-03-11T17:32:45;0.40;;;0.40;;
38909;SDS011;24676;51.360;12.354;2023-03-11T17:35:29;2.83;;;1.25;;
38909;SDS011;24676;51.360;12.354;2023-03-11T17:38:13;1.55;;;1.45;;
38909;SDS011;24676;51.360;12.354;2023-03-11T17:40:58;1.88;;;0.77;;
38909;SDS011;24676;51.360;12.354;2023-03-11T17:43:42;0.75;;;0.75;;
38909;SDS011;24676;51.360;12.354;2023-03-11T17:46:28;3.50;;;1.13;;
38909;SDS011;24676;51.360;12.354;2023-03-11T17:49:13;0.22;;;0.22;;
38909;SDS011;24676;51.360;12.354;2023-03-11T17:51:57;2.83;;;1.30;;
38909;SDS011;24676;51.360;12.354;2023-03-11T17:54:42;2.55;;;0.70;;
38909;SDS011;24676;51.360;12.354;2023-03-11T17:57:27;1.65;;;0.98;;
38909;SDS011;24676;51.360;12.354;2023-03-11T18:00:12;1.08;;;0.32;;
38909;SDS011;24676;51.360;12.354;2023-03-11T18:02:58;0.20;;;0.20;;
38909;SDS011;24676;51.360;12.354;2023-03-11T18:05:52;0.40;;;0.40;;
38909;SDS011;24676;51.360;12.354;2023-03-11T18:08:41;0.63;;;0.23;;
38909;SDS011;24676;51.360;12.354;2023-03-11T18:14:11;0.55;;;0.55;;
38909;SDS011;24676;51.360;12.354;2023-03-11T18:16:55;0.45;;;0.45;;
38909;SDS011;24676;51.360;12.354;2023-03-11T18:19:39;0.30;;;0.30;;
38909;SDS011;24676;51.360;12.354;2023-03-11T18:22:23;0.65;;;0.60;;
38909;SDS011;24676;51.360;12.354;2023-03-11T18:25:08;2.45;;;0.82;;
38909;SDS011;24676;51.360;12.354;2023-03-11T18:27:52;0.40;;;0.40;;
38909;SDS011;24676;51.360;12.354;2023-03-11T18:30:36;0.47;;;0.47;;
38909;SDS011;24676;51.360;12.354;2023-03-11T18:33:21;5.50;;;1.70;;
